Time;durP1;ratioP1;P1;durP2;ratioP2;P2;SDS_P1;SDS_P2;PMS_P1;PMS_P2;Temp;Humidity;BMP_temperature;BMP_pressure;BME280_temperature;BME280_humidity;BME280_pressure;Samples;Min_cycle;Max_cycle;Signal;HPM_P1;HPM_P2
2022/03/30 00:01:00;;;;;;;;;;;9.20;99.90;;;;;;5100393;28;19943;-69
2022/03/30 00:03:27;;;;;;;;;;;9.20;99.90;;;;;;5099304;28;19924;-70
2022/03/30 00:05:54;;;;;;;;;;;9.20;99.90;;;;;;5100183;28;20025;-69
2022/03/30 00:08:20;;;;;;;;;;;9.20;99.90;;;;;;5084226;28;19924;-70
2022/03/30 00:10:47;;;;;;;;;;;9.30;99.90;;;;;;5100502;28;19975;-70
2022/03/30 00:13:15;;;;;;;;;;;9.40;99.90;;;;;;5096078;28;19936;-70
2022/03/30 00:15:42;;;;;;;;;;;9.50;99.90;;;;;;5100147;28;19969;-69
2022/03/30 00:18:08;;;;;;;;;;;9.50;99.90;;;;;;5100617;27;19934;-69
2022/03/30 00:20:35;;;;;;;;;;;9.50;99.90;;;;;;5107872;27;19984;-70
2022/03/30 00:23:02;;;;;;;;;;;9.50;99.90;;;;;;5110890;27;19974;-70
2022/03/30 00:25:29;;;;;;;;;;;9.40;99.90;;;;;;5113900;27;19928;-70
2022/03/30 00:27:56;;;;;;;;;;;9.40;99.90;;;;;;5104228;27;19931;-70
2022/03/30 00:30:25;;;;;;;;;;;9.40;99.90;;;;;;5098199;27;19998;-70
2022/03/30 00:32:52;;;;;;;;;;;9.40;99.90;;;;;;5102409;28;20396;-70
2022/03/30 00:35:18;;;;;;;;;;;9.40;99.90;;;;;;5099183;28;20370;-70
2022/03/30 00:37:45;;;;;;;;;;;9.40;99.90;;;;;;5080837;28;19928;-70
2022/03/30 00:40:13;;;;;;;;;;;9.40;99.90;;;;;;5102792;28;19924;-71
2022/03/30 00:42:40;;;;;;;;;;;9.40;99.90;;;;;;5104322;28;19963;-71
2022/03/30 00:45:15;;;;;;;;;;;9.50;99.90;;;;;;5084194;28;19924;-71
2022/03/30 00:47:42;;;;;;;;;;;9.50;99.90;;;;;;5095076;28;20027;-70
2022/03/30 00:50:12;;;;;;;;;;;9.50;99.90;;;;;;5088796;28;20320;-71
2022/03/30 00:52:39;;;;;;;;;;;9.60;99.90;;;;;;5107881;28;19928;-71
2022/03/30 00:55:09;;;;;;;;;;;9.60;99.90;;;;;;5104306;28;19934;-70
2022/03/30 00:57:36;;;;;;;;;;;9.60;99.90;;;;;;5095772;28;19924;-70
2022/03/30 01:00:05;;;;;;;;;;;9.60;99.90;;;;;;5099445;28;20378;-70
2022/03/30 01:02:32;;;;;;;;;;;9.70;99.90;;;;;;5100560;28;19924;-70
2022/03/30 01:05:00;;;;;;;;;;;9.70;99.90;;;;;;5097777;28;19928;-70
2022/03/30 01:07:28;;;;;;;;;;;9.60;99.90;;;;;;5100391;28;19974;-70
2022/03/30 01:09:55;;;;;;;;;;;9.60;99.90;;;;;;5097532;28;19924;-70
2022/03/30 01:12:21;;;;;;;;;;;9.60;99.90;;;;;;5104227;28;19947;-70
2022/03/30 01:14:48;;;;;;;;;;;9.60;99.90;;;;;;5102254;28;19958;-70
2022/03/30 01:17:15;;;;;;;;;;;9.60;99.90;;;;;;5105800;28;19924;-70
2022/03/30 01:19:42;;;;;;;;;;;9.50;99.90;;;;;;5081321;28;20291;-70
2022/03/30 01:22:08;;;;;;;;;;;9.50;99.90;;;;;;5105562;28;20026;-70
2022/03/30 01:24:35;;;;;;;;;;;9.50;99.90;;;;;;5081509;28;19927;-70
2022/03/30 01:27:05;;;;;;;;;;;9.50;99.90;;;;;;5094892;28;20023;-70
2022/03/30 01:32:26;;;;;;;;;;;9.50;99.90;;;;;;5105977;28;20550;-71
2022/03/30 01:34:54;;;;;;;;;;;9.50;99.90;;;;;;5099457;28;19924;-70
2022/03/30 01:37:20;;;;;;;;;;;9.50;99.90;;;;;;5099927;28;20010;-70
2022/03/30 01:39:47;;;;;;;;;;;9.50;99.90;;;;;;5104780;28;19928;-70
2022/03/30 01:42:14;;;;;;;;;;;9.40;99.90;;;;;;5107231;28;19938;-70
2022/03/30 01:44:41;;;;;;;;;;;9.40;99.90;;;;;;5087596;28;19938;-70
2022/03/30 01:47:10;;;;;;;;;;;9.40;99.90;;;;;;5097947;28;19930;-70
2022/03/30 01:49:37;;;;;;;;;;;9.30;99.90;;;;;;5102915;28;19930;-70
2022/03/30 01:52:04;;;;;;;;;;;9.30;99.90;;;;;;5104125;28;19930;-70
2022/03/30 01:54:34;;;;;;;;;;;9.20;99.90;;;;;;5101707;28;19923;-70
2022/03/30 01:57:00;;;;;;;;;;;9.20;99.90;;;;;;5103688;28;19924;-69
2022/03/30 01:59:27;;;;;;;;;;;9.10;99.90;;;;;;5107543;28;20566;-69
2022/03/30 02:01:53;;;;;;;;;;;9.00;99.90;;;;;;5101891;28;20038;-69
2022/03/30 02:04:20;;;;;;;;;;;8.80;99.90;;;;;;5098179;28;19932;-69
2022/03/30 02:06:47;;;;;;;;;;;8.70;99.90;;;;;;5100797;28;19977;-69
2022/03/30 02:09:14;;;;;;;;;;;8.60;99.90;;;;;;5099219;28;19927;-70
2022/03/30 02:11:41;;;;;;;;;;;8.50;99.90;;;;;;5099545;28;20018;-70
2022/03/30 02:14:08;;;;;;;;;;;8.40;99.90;;;;;;5104386;28;19924;-70
2022/03/30 02:16:36;;;;;;;;;;;8.40;99.90;;;;;;5101047;28;20294;-69
2022/03/30 02:19:03;;;;;;;;;;;8.30;99.90;;;;;;5106519;28;19969;-69
2022/03/30 02:21:29;;;;;;;;;;;8.20;99.90;;;;;;5097883;28;19932;-70
2022/03/30 02:23:56;;;;;;;;;;;8.00;99.90;;;;;;5094974;28;19947;-71
2022/03/30 02:26:23;;;;;;;;;;;7.90;99.90;;;;;;5098405;28;19931;-70
2022/03/30 02:28:51;;;;;;;;;;;7.80;99.90;;;;;;5102467;28;19920;-71
2022/03/30 02:31:18;;;;;;;;;;;7.60;99.90;;;;;;5101156;28;20671;-70
2022/03/30 02:33:46;;;;;;;;;;;7.50;99.90;;;;;;5099033;27;19928;-70
2022/03/30 02:36:13;;;;;;;;;;;7.40;99.90;;;;;;5103171;28;20022;-70
2022/03/30 02:38:40;;;;;;;;;;;7.30;99.90;;;;;;5093992;28;19928;-70
2022/03/30 02:41:10;;;;;;;;;;;7.20;99.90;;;;;;5105705;28;20006;-71
2022/03/30 02:43:39;;;;;;;;;;;7.20;99.90;;;;;;5095035;28;20017;-71
2022/03/30 02:46:06;;;;;;;;;;;7.10;99.90;;;;;;5101877;28;19924;-70
2022/03/30 02:48:35;;;;;;;;;;;7.10;99.90;;;;;;5093037;28;19924;-71
2022/03/30 02:51:03;;;;;;;;;;;7.10;99.90;;;;;;5078049;28;19924;-71
2022/03/30 02:53:30;;;;;;;;;;;7.00;99.90;;;;;;5092521;28;19934;-71
2022/03/30 02:55:56;;;;;;;;;;;6.90;99.90;;;;;;5100830;28;20417;-71
2022/03/30 02:58:24;;;;;;;;;;;6.90;99.90;;;;;;5097794;28;19924;-71
2022/03/30 03:00:51;;;;;;;;;;;6.90;99.90;;;;;;5096864;28;20301;-71
2022/03/30 03:03:18;;;;;;;;;;;6.80;99.90;;;;;;5099353;28;20314;-71
2022/03/30 03:05:44;;;;;;;;;;;6.80;99.90;;;;;;5098050;28;20263;-71
2022/03/30 03:08:12;;;;;;;;;;;6.80;99.90;;;;;;5090906;28;20065;-70
2022/03/30 03:10:40;;;;;;;;;;;6.80;99.90;;;;;;5100208;28;19928;-71
2022/03/30 03:13:11;;;;;;;;;;;6.90;99.90;;;;;;5102539;28;19934;-71
2022/03/30 03:15:37;;;;;;;;;;;6.80;99.90;;;;;;5103062;28;20375;-72
2022/03/30 03:18:06;;;;;;;;;;;6.80;99.90;;;;;;5097029;28;20030;-71
2022/03/30 03:20:34;;;;;;;;;;;6.70;99.90;;;;;;5098866;28;19924;-71
2022/03/30 03:23:04;;;;;;;;;;;6.70;99.90;;;;;;5098607;28;19942;-71
2022/03/30 03:25:34;;;;;;;;;;;6.70;99.90;;;;;;5096759;28;20011;-71
2022/03/30 03:28:01;;;;;;;;;;;6.70;99.90;;;;;;5103764;28;19924;-70
2022/03/30 03:30:29;;;;;;;;;;;6.70;99.90;;;;;;5100993;28;19931;-73
2022/03/30 03:32:59;;;;;;;;;;;6.70;99.90;;;;;;5103479;28;19931;-70
2022/03/30 03:35:29;;;;;;;;;;;6.60;99.90;;;;;;5100919;28;20431;-72
2022/03/30 03:37:56;;;;;;;;;;;6.60;99.90;;;;;;5099541;28;20019;-71
2022/03/30 03:40:25;;;;;;;;;;;6.50;99.90;;;;;;5102432;28;19928;-71
2022/03/30 03:42:54;;;;;;;;;;;6.60;99.90;;;;;;5103590;28;20297;-72
2022/03/30 03:45:23;;;;;;;;;;;6.50;99.90;;;;;;5098885;28;19924;-71
2022/03/30 03:47:51;;;;;;;;;;;6.50;99.90;;;;;;5103444;28;19934;-71
2022/03/30 03:50:18;;;;;;;;;;;6.50;99.90;;;;;;5082690;28;19974;-71
2022/03/30 03:52:44;;;;;;;;;;;6.50;99.90;;;;;;5104717;28;20023;-72
2022/03/30 03:55:19;;;;;;;;;;;6.40;99.90;;;;;;5105190;28;20359;-72
2022/03/30 03:57:50;;;;;;;;;;;6.40;99.90;;;;;;5100164;28;19924;-72
2022/03/30 04:00:18;;;;;;;;;;;6.40;99.90;;;;;;5104718;28;19972;-71
2022/03/30 04:02:48;;;;;;;;;;;6.40;99.90;;;;;;5090970;28;19923;-71
2022/03/30 04:05:15;;;;;;;;;;;6.40;99.90;;;;;;5111309;28;19988;-70
2022/03/30 04:07:41;;;;;;;;;;;6.30;99.90;;;;;;5106223;28;20015;-71
2022/03/30 04:10:09;;;;;;;;;;;6.30;99.90;;;;;;5100923;28;19948;-72
2022/03/30 04:12:37;;;;;;;;;;;6.30;99.90;;;;;;5110671;28;19982;-72
2022/03/30 04:15:04;;;;;;;;;;;6.30;99.90;;;;;;5100626;28;20286;-71
2022/03/30 04:17:33;;;;;;;;;;;6.40;99.90;;;;;;5109957;28;19924;-72
2022/03/30 04:20:00;;;;;;;;;;;6.30;99.90;;;;;;5109640;28;19928;-71
2022/03/30 04:22:27;;;;;;;;;;;6.30;99.90;;;;;;5109386;28;19923;-71
2022/03/30 04:24:54;;;;;;;;;;;6.30;99.90;;;;;;5088172;28;19953;-71
2022/03/30 04:27:20;;;;;;;;;;;6.30;99.90;;;;;;5104199;28;19961;-71
2022/03/30 04:29:47;;;;;;;;;;;6.30;99.90;;;;;;5103682;28;20014;-71
2022/03/30 04:32:14;;;;;;;;;;;6.30;99.90;;;;;;5099238;28;20055;-72
2022/03/30 04:34:40;;;;;;;;;;;6.30;99.90;;;;;;5108917;27;19980;-71
2022/03/30 04:37:07;;;;;;;;;;;6.30;99.90;;;;;;5106758;28;19924;-71
2022/03/30 04:39:34;;;;;;;;;;;6.30;99.90;;;;;;5100072;28;20383;-71
2022/03/30 04:42:00;;;;;;;;;;;6.20;99.90;;;;;;5102087;28;19923;-71
2022/03/30 04:44:27;;;;;;;;;;;6.30;99.90;;;;;;5101301;28;19932;-71
2022/03/30 04:46:54;;;;;;;;;;;6.20;99.90;;;;;;5105848;28;19934;-71
2022/03/30 04:49:21;;;;;;;;;;;6.20;99.90;;;;;;5104654;27;20386;-71
2022/03/30 04:51:48;;;;;;;;;;;6.20;99.90;;;;;;5085489;28;19932;-71
2022/03/30 04:54:17;;;;;;;;;;;6.30;99.90;;;;;;5107260;28;19923;-72
2022/03/30 04:56:45;;;;;;;;;;;6.30;99.90;;;;;;5105922;28;19942;-71
2022/03/30 04:59:12;;;;;;;;;;;6.30;99.90;;;;;;5102709;27;19978;-71
2022/03/30 05:01:38;;;;;;;;;;;6.30;99.90;;;;;;5110548;27;20270;-71
2022/03/30 05:04:06;;;;;;;;;;;6.30;99.90;;;;;;5105118;27;20448;-71
2022/03/30 05:06:33;;;;;;;;;;;6.20;99.90;;;;;;5104992;27;19967;-71
2022/03/30 05:09:00;;;;;;;;;;;6.30;99.90;;;;;;5103215;27;19939;-71
2022/03/30 05:11:26;;;;;;;;;;;6.30;99.90;;;;;;5108481;28;20006;-71
2022/03/30 05:13:53;;;;;;;;;;;6.30;99.90;;;;;;5105226;28;19924;-70
2022/03/30 05:16:20;;;;;;;;;;;6.30;99.90;;;;;;5089049;28;20219;-70
2022/03/30 05:18:46;;;;;;;;;;;6.30;99.90;;;;;;5106681;28;19924;-70
2022/03/30 05:21:13;;;;;;;;;;;6.20;99.90;;;;;;5102007;28;19938;-70
2022/03/30 05:23:40;;;;;;;;;;;6.20;99.90;;;;;;5107908;28;19928;-70
2022/03/30 05:26:08;;;;;;;;;;;6.20;99.90;;;;;;5111142;28;19924;-70
2022/03/30 05:28:38;;;;;;;;;;;6.20;99.90;;;;;;5105915;28;19924;-70
2022/03/30 05:31:06;;;;;;;;;;;6.20;99.90;;;;;;5093761;28;19927;-71
2022/03/30 05:33:34;;;;;;;;;;;6.10;99.90;;;;;;5103916;27;20011;-70
2022/03/30 05:36:01;;;;;;;;;;;6.20;99.90;;;;;;5109846;28;19932;-70
2022/03/30 05:38:28;;;;;;;;;;;6.10;99.90;;;;;;5106737;27;19984;-71
2022/03/30 05:40:55;;;;;;;;;;;6.10;99.90;;;;;;5109291;27;20291;-71
2022/03/30 05:43:22;;;;;;;;;;;6.10;99.90;;;;;;5105318;28;20374;-72
2022/03/30 05:45:48;;;;;;;;;;;6.10;99.90;;;;;;5100498;28;19932;-71
2022/03/30 05:48:17;;;;;;;;;;;6.10;99.90;;;;;;5092380;28;20328;-72
2022/03/30 05:50:45;;;;;;;;;;;6.10;99.90;;;;;;5100715;28;19932;-73
2022/03/30 05:53:13;;;;;;;;;;;6.10;99.90;;;;;;5106699;27;19928;-73
2022/03/30 05:55:46;;;;;;;;;;;6.10;99.90;;;;;;5104351;28;20023;-73
2022/03/30 05:58:14;;;;;;;;;;;6.10;99.90;;;;;;5100320;28;19924;-73
2022/03/30 06:00:41;;;;;;;;;;;6.10;99.90;;;;;;5104703;28;20011;-73
2022/03/30 06:03:10;;;;;;;;;;;6.10;99.90;;;;;;5102633;28;19940;-74
2022/03/30 06:05:37;;;;;;;;;;;6.10;99.90;;;;;;5098426;28;19992;-75
2022/03/30 06:08:05;;;;;;;;;;;6.10;99.90;;;;;;5098323;28;19938;-75
2022/03/30 06:10:32;;;;;;;;;;;6.10;99.90;;;;;;5097617;28;20010;-76
2022/03/30 06:12:59;;;;;;;;;;;6.00;99.90;;;;;;5083777;28;19963;-76
2022/03/30 06:15:33;;;;;;;;;;;5.90;99.90;;;;;;5103316;28;19970;-76
2022/03/30 06:18:03;;;;;;;;;;;6.00;99.90;;;;;;5100497;28;19924;-76
2022/03/30 06:20:30;;;;;;;;;;;6.00;99.90;;;;;;5100633;28;19935;-76
2022/03/30 06:22:57;;;;;;;;;;;5.90;99.90;;;;;;5105454;28;20439;-76
2022/03/30 06:25:26;;;;;;;;;;;6.00;99.90;;;;;;5113406;27;20326;-76
2022/03/30 06:27:54;;;;;;;;;;;5.90;99.90;;;;;;5109399;28;19924;-77
2022/03/30 06:30:20;;;;;;;;;;;5.90;99.90;;;;;;5107685;28;19975;-78
2022/03/30 06:32:49;;;;;;;;;;;5.80;99.90;;;;;;5114503;27;19929;-77
2022/03/30 06:35:17;;;;;;;;;;;5.80;99.90;;;;;;5102079;27;19924;-78
2022/03/30 06:37:47;;;;;;;;;;;5.80;99.90;;;;;;5080708;28;19930;-80
2022/03/30 06:40:14;;;;;;;;;;;5.80;99.90;;;;;;5093617;28;20006;-79
2022/03/30 06:42:42;;;;;;;;;;;5.80;99.90;;;;;;5102594;27;19928;-80
2022/03/30 06:45:11;;;;;;;;;;;5.80;99.90;;;;;;5101154;27;19934;-80
2022/03/30 06:47:38;;;;;;;;;;;5.80;99.90;;;;;;5105382;28;19959;-80
2022/03/30 06:50:05;;;;;;;;;;;5.80;99.90;;;;;;5106771;28;19990;-80
2022/03/30 06:52:35;;;;;;;;;;;5.90;99.90;;;;;;5096458;28;19924;-80
2022/03/30 06:55:15;;;;;;;;;;;5.90;99.90;;;;;;5103682;27;21922;-80
2022/03/30 06:57:42;;;;;;;;;;;5.90;99.90;;;;;;5099484;27;19950;-80
2022/03/30 07:00:13;;;;;;;;;;;5.90;99.90;;;;;;5103543;28;19958;-80
2022/03/30 07:03:07;;;;;;;;;;;5.90;99.90;;;;;;5103592;28;19959;-79
2022/03/30 07:05:34;;;;;;;;;;;6.00;99.90;;;;;;5096399;28;19924;-79
2022/03/30 07:10:46;;;;;;;;;;;6.00;99.90;;;;;;5097520;28;19923;-78
2022/03/30 07:13:13;;;;;;;;;;;6.00;99.90;;;;;;5101900;28;20018;-79
2022/03/30 07:15:41;;;;;;;;;;;6.00;99.90;;;;;;5099758;28;19924;-79
2022/03/30 07:18:13;;;;;;;;;;;6.10;99.90;;;;;;5095705;28;19924;-79
2022/03/30 07:20:39;;;;;;;;;;;6.10;99.90;;;;;;5086596;28;19924;-79
2022/03/30 07:23:10;;;;;;;;;;;6.20;99.90;;;;;;5093117;28;19924;-78
2022/03/30 07:25:39;;;;;;;;;;;6.20;99.90;;;;;;5081105;28;19924;-78
2022/03/30 07:28:06;;;;;;;;;;;6.30;99.90;;;;;;5101173;28;19978;-78
2022/03/30 07:30:34;;;;;;;;;;;6.40;99.90;;;;;;5097983;28;20363;-77
2022/03/30 07:33:01;;;;;;;;;;;6.40;99.90;;;;;;5106850;27;19982;-78
2022/03/30 07:35:35;;;;;;;;;;;6.50;99.90;;;;;;5113786;27;20708;-78
2022/03/30 07:38:02;;;;;;;;;;;6.60;99.90;;;;;;5083922;28;19936;-78
2022/03/30 07:40:29;;;;;;;;;;;6.70;99.90;;;;;;5102542;27;19924;-78
2022/03/30 07:42:56;;;;;;;;;;;6.80;99.90;;;;;;5098211;28;19930;-77
2022/03/30 07:45:25;;;;;;;;;;;6.80;99.90;;;;;;5093019;28;19930;-77
2022/03/30 07:47:51;;;;;;;;;;;6.90;99.90;;;;;;5102046;28;19950;-77
2022/03/30 07:50:19;;;;;;;;;;;6.90;99.90;;;;;;5106284;28;19936;-77
2022/03/30 07:52:48;;;;;;;;;;;6.80;99.90;;;;;;5098267;27;20377;-77
2022/03/30 07:55:15;;;;;;;;;;;6.80;99.90;;;;;;5099959;28;19924;-77
2022/03/30 07:57:42;;;;;;;;;;;6.80;99.90;;;;;;5112817;27;19933;-77
2022/03/30 08:00:11;;;;;;;;;;;6.80;99.90;;;;;;5108002;28;19962;-76
2022/03/30 08:02:40;;;;;;;;;;;6.80;99.90;;;;;;5100939;28;20015;-76
2022/03/30 08:05:12;;;;;;;;;;;6.80;99.90;;;;;;5111823;27;19924;-76
2022/03/30 08:07:40;;;;;;;;;;;6.90;99.90;;;;;;5109584;28;19923;-76
2022/03/30 08:10:08;;;;;;;;;;;6.90;99.90;;;;;;5103737;28;19966;-75
2022/03/30 08:12:35;;;;;;;;;;;6.90;99.90;;;;;;5110245;28;20015;-76
2022/03/30 08:15:08;;;;;;;;;;;6.80;99.90;;;;;;5099015;28;19931;-76
2022/03/30 08:17:36;;;;;;;;;;;6.80;99.90;;;;;;5110556;27;19945;-75
2022/03/30 08:20:03;;;;;;;;;;;6.80;99.90;;;;;;5098732;28;19970;-76
2022/03/30 08:22:33;;;;;;;;;;;6.80;99.90;;;;;;5110691;27;19923;-75
2022/03/30 08:25:02;;;;;;;;;;;6.80;99.90;;;;;;5111203;27;20010;-75
2022/03/30 08:27:31;;;;;;;;;;;6.80;99.90;;;;;;5089393;28;20345;-76
2022/03/30 08:29:58;;;;;;;;;;;6.80;99.90;;;;;;5102071;28;20321;-76
2022/03/30 08:32:31;;;;;;;;;;;6.80;99.90;;;;;;5113499;27;20010;-76
2022/03/30 08:34:59;;;;;;;;;;;6.80;99.90;;;;;;5101809;27;20046;-76
2022/03/30 08:37:25;;;;;;;;;;;6.80;99.90;;;;;;5108435;28;20388;-76
2022/03/30 08:39:53;;;;;;;;;;;6.90;99.90;;;;;;5099617;28;19931;-75
2022/03/30 08:42:21;;;;;;;;;;;6.90;99.90;;;;;;5105702;28;20010;-76
2022/03/30 08:44:49;;;;;;;;;;;7.00;99.90;;;;;;5098916;28;20031;-76
2022/03/30 08:47:16;;;;;;;;;;;7.00;99.90;;;;;;5116255;27;19928;-76
2022/03/30 08:49:47;;;;;;;;;;;7.10;99.90;;;;;;5104867;28;19932;-75
2022/03/30 08:52:14;;;;;;;;;;;7.20;99.90;;;;;;5110516;28;19928;-75
2022/03/30 08:54:51;;;;;;;;;;;7.30;99.90;;;;;;5112563;28;20368;-75
2022/03/30 08:57:18;;;;;;;;;;;7.50;99.90;;;;;;5104746;28;19924;-75
2022/03/30 09:00:03;;;;;;;;;;;7.60;99.90;;;;;;5103330;28;20010;-75
2022/03/30 09:02:37;;;;;;;;;;;7.70;99.90;;;;;;5110744;28;20011;-75
2022/03/30 09:05:19;;;;;;;;;;;7.70;99.90;;;;;;5108487;28;20424;-75
2022/03/30 09:07:50;;;;;;;;;;;7.70;99.90;;;;;;5103097;28;19924;-75
2022/03/30 09:10:18;;;;;;;;;;;7.60;99.90;;;;;;5095832;28;20305;-76
2022/03/30 09:12:46;;;;;;;;;;;7.80;99.90;;;;;;5099568;28;19963;-75
2022/03/30 09:15:14;;;;;;;;;;;8.00;99.90;;;;;;5100113;27;20034;-75
2022/03/30 09:17:56;;;;;;;;;;;8.20;99.90;;;;;;5095267;28;19950;-76
2022/03/30 09:20:23;;;;;;;;;;;8.30;99.90;;;;;;5104882;28;20443;-75
2022/03/30 09:22:52;;;;;;;;;;;8.30;99.90;;;;;;5093487;27;20243;-76
2022/03/30 09:25:42;;;;;;;;;;;8.30;99.90;;;;;;5100547;27;20751;-76
2022/03/30 09:28:09;;;;;;;;;;;8.60;99.90;;;;;;5105045;28;20026;-76
2022/03/30 09:30:37;;;;;;;;;;;8.80;99.90;;;;;;5104184;28;20011;-76
2022/03/30 09:33:07;;;;;;;;;;;8.80;99.90;;;;;;5109554;28;19931;-76
2022/03/30 09:35:38;;;;;;;;;;;8.90;99.90;;;;;;5103169;27;19940;-76
2022/03/30 09:38:05;;;;;;;;;;;9.20;99.90;;;;;;5100026;28;19998;-76
2022/03/30 09:40:35;;;;;;;;;;;9.50;99.90;;;;;;5093168;28;20334;-76
2022/03/30 09:43:17;;;;;;;;;;;9.70;99.90;;;;;;5085575;28;19924;-77
2022/03/30 09:45:45;;;;;;;;;;;10.00;99.90;;;;;;5090963;28;19977;-76
2022/03/30 09:48:24;;;;;;;;;;;10.40;99.90;;;;;;5105247;28;19998;-76
2022/03/30 09:50:52;;;;;;;;;;;10.90;99.90;;;;;;5106429;28;19924;-76
2022/03/30 09:53:19;;;;;;;;;;;11.40;99.90;;;;;;5103247;28;19932;-77
2022/03/30 09:55:53;;;;;;;;;;;11.70;99.90;;;;;;5097986;28;20433;-77
2022/03/30 09:58:25;;;;;;;;;;;11.70;99.90;;;;;;5106936;28;20270;-76
2022/03/30 10:01:13;;;;;;;;;;;11.80;99.90;;;;;;5104297;27;20492;-75
2022/03/30 10:03:45;;;;;;;;;;;11.50;99.90;;;;;;5101840;27;19924;-76
2022/03/30 10:06:13;;;;;;;;;;;11.50;99.90;;;;;;5090937;28;19978;-76
2022/03/30 10:08:40;;;;;;;;;;;11.20;99.90;;;;;;5100055;27;19924;-77
2022/03/30 10:11:09;;;;;;;;;;;11.30;99.90;;;;;;5082168;28;19946;-77
2022/03/30 10:13:37;;;;;;;;;;;11.30;99.90;;;;;;5099272;28;19989;-76
2022/03/30 10:16:24;;;;;;;;;;;11.30;99.90;;;;;;5104836;27;19930;-77
2022/03/30 10:18:51;;;;;;;;;;;11.20;99.90;;;;;;5094858;28;19966;-76
2022/03/30 10:21:19;;;;;;;;;;;11.30;99.90;;;;;;5102328;28;19957;-75
2022/03/30 10:24:00;;;;;;;;;;;11.70;99.90;;;;;;5097622;28;19981;-76
2022/03/30 10:26:45;;;;;;;;;;;12.00;99.90;;;;;;5094412;27;19931;-76
2022/03/30 10:29:15;;;;;;;;;;;12.60;99.90;;;;;;5099056;28;20334;-76
2022/03/30 10:31:42;;;;;;;;;;;12.00;99.90;;;;;;5099196;28;19972;-76
2022/03/30 10:34:27;;;;;;;;;;;12.20;99.90;;;;;;5100129;28;19977;-76
2022/03/30 10:37:09;;;;;;;;;;;12.30;99.90;;;;;;5103889;27;20021;-76
2022/03/30 10:39:54;;;;;;;;;;;12.20;99.90;;;;;;5099232;27;19968;-77
2022/03/30 10:42:21;;;;;;;;;;;11.90;99.90;;;;;;5099144;28;19924;-77
2022/03/30 10:44:53;;;;;;;;;;;11.90;99.90;;;;;;5100004;28;19930;-76
2022/03/30 10:47:21;;;;;;;;;;;12.10;99.90;;;;;;5105174;28;20038;-76
2022/03/30 10:49:50;;;;;;;;;;;12.10;99.90;;;;;;5102554;28;19932;-77
2022/03/30 10:52:24;;;;;;;;;;;12.10;99.90;;;;;;5097946;28;20014;-77
2022/03/30 10:55:09;;;;;;;;;;;12.10;99.90;;;;;;5098605;28;20531;-76
2022/03/30 10:57:58;;;;;;;;;;;12.20;99.90;;;;;;5094181;28;19932;-77
2022/03/30 11:00:31;;;;;;;;;;;12.00;99.90;;;;;;5099036;28;19930;-76
2022/03/30 11:03:05;;;;;;;;;;;11.70;99.90;;;;;;5079047;28;20391;-77
2022/03/30 11:05:32;;;;;;;;;;;11.50;99.90;;;;;;5097614;28;19928;-75
2022/03/30 11:08:00;;;;;;;;;;;11.40;99.90;;;;;;5101056;28;19924;-75
2022/03/30 11:10:30;;;;;;;;;;;11.20;99.90;;;;;;5108305;28;19927;-75
2022/03/30 11:13:02;;;;;;;;;;;11.10;99.90;;;;;;5096844;28;20585;-76
2022/03/30 11:15:50;;;;;;;;;;;11.40;99.90;;;;;;5097472;28;19923;-76
2022/03/30 11:18:20;;;;;;;;;;;12.10;99.90;;;;;;5100154;28;19928;-76
2022/03/30 11:21:09;;;;;;;;;;;12.20;99.90;;;;;;5102047;28;19928;-77
2022/03/30 11:23:36;;;;;;;;;;;12.30;99.90;;;;;;5097336;28;19931;-74
2022/03/30 11:26:03;;;;;;;;;;;12.60;99.90;;;;;;5101746;28;19951;-75
2022/03/30 11:28:35;;;;;;;;;;;12.40;99.90;;;;;;5096512;28;19951;-75
2022/03/30 11:31:04;;;;;;;;;;;12.60;99.90;;;;;;5099451;28;19924;-75
2022/03/30 11:33:34;;;;;;;;;;;12.70;99.90;;;;;;5100678;28;20374;-76
2022/03/30 11:36:02;;;;;;;;;;;13.10;99.90;;;;;;5097301;28;19928;-75
2022/03/30 11:38:39;;;;;;;;;;;12.50;99.90;;;;;;5103544;28;20031;-76
2022/03/30 11:41:08;;;;;;;;;;;12.30;99.90;;;;;;5080772;28;20019;-75
2022/03/30 11:45:12;;;;;;;;;;;12.20;99.90;;;;;;5078330;28;19924;-75
2022/03/30 11:46:30;;;;;;;;;;;11.90;99.90;;;;;;5102818;28;19963;-76
2022/03/30 11:49:00;;;;;;;;;;;11.90;99.90;;;;;;5093337;28;19928;-74
2022/03/30 11:51:27;;;;;;;;;;;12.10;99.90;;;;;;5104458;28;20011;-74
2022/03/30 11:54:13;;;;;;;;;;;12.00;99.90;;;;;;5090935;28;20019;-74
2022/03/30 11:56:40;;;;;;;;;;;11.90;99.90;;;;;;5077781;28;19947;-75
2022/03/30 11:59:07;;;;;;;;;;;12.20;99.90;;;;;;5092108;28;19924;-75
2022/03/30 12:01:40;;;;;;;;;;;12.70;99.90;;;;;;5108548;28;19923;-75
2022/03/30 12:04:07;;;;;;;;;;;13.40;99.90;;;;;;5095802;28;19931;-75
2022/03/30 12:06:34;;;;;;;;;;;13.50;99.90;;;;;;5097392;28;19932;-75
2022/03/30 12:09:01;;;;;;;;;;;13.20;99.90;;;;;;5100835;28;20019;-74
2022/03/30 12:11:29;;;;;;;;;;;13.20;99.90;;;;;;5089630;28;19954;-72
2022/03/30 12:13:57;;;;;;;;;;;13.10;99.90;;;;;;5092003;28;19931;-75
2022/03/30 12:16:24;;;;;;;;;;;13.00;99.90;;;;;;5104907;28;20015;-78
2022/03/30 12:18:52;;;;;;;;;;;13.40;99.90;;;;;;5098848;28;19924;-76
2022/03/30 12:21:20;;;;;;;;;;;13.90;99.90;;;;;;5087630;28;19935;-68
2022/03/30 12:23:53;;;;;;;;;;;14.20;99.90;;;;;;5103127;28;20387;-74
2022/03/30 12:26:40;;;;;;;;;;;14.80;99.90;;;;;;5104862;28;19924;-75
2022/03/30 12:29:09;;;;;;;;;;;15.40;99.90;;;;;;5096881;28;20416;-75
2022/03/30 12:31:37;;;;;;;;;;;15.60;99.90;;;;;;5107656;28;19924;-74
2022/03/30 12:34:08;;;;;;;;;;;15.50;99.90;;;;;;5105101;27;19935;-75
2022/03/30 12:36:39;;;;;;;;;;;15.20;99.90;;;;;;5102214;28;19928;-74
2022/03/30 12:39:21;;;;;;;;;;;14.80;99.90;;;;;;5098923;28;19985;-75
2022/03/30 12:42:03;;;;;;;;;;;15.50;99.90;;;;;;5102597;27;20014;-76
2022/03/30 12:44:33;;;;;;;;;;;15.80;99.90;;;;;;5102503;28;19932;-76
2022/03/30 12:47:01;;;;;;;;;;;16.80;99.90;;;;;;5105343;28;20407;-76
2022/03/30 12:49:34;;;;;;;;;;;17.60;99.90;;;;;;5106808;28;20358;-77
2022/03/30 12:52:05;;;;;;;;;;;18.30;99.90;;;;;;5084789;28;19924;-76
2022/03/30 12:54:32;;;;;;;;;;;18.60;99.90;;;;;;5085644;28;19927;-75
2022/03/30 12:56:58;;;;;;;;;;;18.10;99.90;;;;;;5100802;28;20018;-75
2022/03/30 12:59:25;;;;;;;;;;;16.40;99.90;;;;;;5105070;28;20018;-74
2022/03/30 13:01:53;;;;;;;;;;;15.70;99.90;;;;;;5107328;27;19956;-74
2022/03/30 13:04:30;;;;;;;;;;;14.90;99.90;;;;;;5100873;28;19934;-74
2022/03/30 13:07:11;;;;;;;;;;;14.50;99.90;;;;;;5109212;28;20440;-74
2022/03/30 13:09:39;;;;;;;;;;;14.40;99.90;;;;;;5094126;28;19932;-75
2022/03/30 13:12:06;;;;;;;;;;;14.30;99.90;;;;;;5102302;28;19928;-74
2022/03/30 13:14:33;;;;;;;;;;;14.00;99.90;;;;;;5102251;28;19932;-75
2022/03/30 13:17:11;;;;;;;;;;;14.00;99.90;;;;;;5087479;28;19981;-74
2022/03/30 13:19:38;;;;;;;;;;;14.20;99.90;;;;;;5101636;28;19966;-74
2022/03/30 13:22:06;;;;;;;;;;;14.00;99.90;;;;;;5100150;27;20338;-74
2022/03/30 13:24:33;;;;;;;;;;;14.00;99.90;;;;;;5085055;28;19928;-75
2022/03/30 13:27:02;;;;;;;;;;;13.90;99.90;;;;;;5093119;28;19923;-74
2022/03/30 13:29:29;;;;;;;;;;;13.80;99.90;;;;;;5095527;28;19946;-74
2022/03/30 13:31:56;;;;;;;;;;;13.80;99.90;;;;;;5097479;28;19928;-75
2022/03/30 13:34:24;;;;;;;;;;;13.90;99.90;;;;;;5104973;28;19932;-74
2022/03/30 13:36:51;;;;;;;;;;;14.10;99.90;;;;;;5102828;28;19967;-75
2022/03/30 13:39:20;;;;;;;;;;;14.50;99.90;;;;;;5100714;28;19971;-75
2022/03/30 13:41:47;;;;;;;;;;;14.80;99.90;;;;;;5085826;28;20034;-75
2022/03/30 13:44:14;;;;;;;;;;;15.10;99.90;;;;;;5097075;28;20583;-75
2022/03/30 13:46:44;;;;;;;;;;;15.20;99.90;;;;;;5097801;28;19924;-74
2022/03/30 13:49:11;;;;;;;;;;;15.40;99.90;;;;;;5098910;28;20027;-74
2022/03/30 13:51:38;;;;;;;;;;;15.50;99.90;;;;;;5096624;28;19992;-74
2022/03/30 13:54:05;;;;;;;;;;;15.50;99.90;;;;;;5081612;27;19935;-74
2022/03/30 13:56:31;;;;;;;;;;;15.50;99.90;;;;;;5106304;27;19928;-74
2022/03/30 13:58:58;;;;;;;;;;;16.50;99.90;;;;;;5103492;27;19944;-74
2022/03/30 14:01:27;;;;;;;;;;;17.90;99.90;;;;;;5106688;27;20383;-75
2022/03/30 14:03:54;;;;;;;;;;;18.10;99.90;;;;;;5092578;28;19941;-74
2022/03/30 14:06:22;;;;;;;;;;;18.30;99.90;;;;;;5087868;27;20019;-74
2022/03/30 14:08:49;;;;;;;;;;;18.80;99.90;;;;;;5107168;28;19924;-73
2022/03/30 14:11:16;;;;;;;;;;;19.10;99.90;;;;;;5102806;27;19924;-74
2022/03/30 14:13:45;;;;;;;;;;;19.70;99.90;;;;;;5104011;27;20341;-73
2022/03/30 14:16:12;;;;;;;;;;;19.60;99.90;;;;;;5103077;27;19958;-74
2022/03/30 14:18:39;;;;;;;;;;;19.70;99.90;;;;;;5103110;27;20001;-74
2022/03/30 14:21:08;;;;;;;;;;;18.90;99.90;;;;;;5101230;28;20019;-73
2022/03/30 14:23:35;;;;;;;;;;;18.00;99.50;;;;;;5104352;27;19939;-73
2022/03/30 14:26:02;;;;;;;;;;;17.00;99.90;;;;;;5100873;27;19928;-73
2022/03/30 14:28:29;;;;;;;;;;;17.00;99.90;;;;;;5101658;27;20015;-73
2022/03/30 14:30:57;;;;;;;;;;;17.10;99.90;;;;;;5107669;27;19924;-73
2022/03/30 14:33:23;;;;;;;;;;;16.80;99.90;;;;;;5099042;27;19924;-74
2022/03/30 14:35:50;;;;;;;;;;;16.20;99.90;;;;;;5104186;27;19928;-73
2022/03/30 14:38:17;;;;;;;;;;;15.60;99.90;;;;;;5104969;27;20015;-73
2022/03/30 14:40:44;;;;;;;;;;;14.70;99.90;;;;;;5097452;28;20488;-73
2022/03/30 14:43:11;;;;;;;;;;;14.50;99.90;;;;;;5093099;28;19924;-73